createdAt,value
2023-02-13T00:00:19.662Z,11.92
2023-02-13T00:01:51.141Z,11.88
2023-02-13T00:03:22.664Z,11.89
2023-02-13T00:04:54.119Z,11.88
2023-02-13T00:06:25.663Z,11.90
2023-02-13T00:07:57.455Z,11.91
2023-02-13T00:09:30.352Z,11.87
2023-02-13T00:11:01.872Z,11.86
2023-02-13T00:12:33.377Z,11.87
2023-02-13T00:14:05.052Z,11.86
2023-02-13T00:15:36.560Z,11.83
2023-02-13T00:17:08.199Z,11.80
2023-02-13T00:18:39.682Z,11.74
2023-02-13T00:20:11.707Z,11.75
2023-02-13T00:21:43.205Z,11.73
2023-02-13T00:23:14.675Z,11.68
2023-02-13T00:24:47.665Z,11.74
2023-02-13T00:26:19.412Z,11.74
2023-02-13T00:27:53.925Z,11.72
2023-02-13T00:29:26.652Z,11.70
2023-02-13T00:31:02.571Z,11.66
2023-02-13T00:32:34.045Z,11.67
2023-02-13T00:34:05.939Z,11.66
2023-02-13T00:35:37.753Z,11.65
2023-02-13T00:37:09.246Z,11.58
2023-02-13T00:38:41.562Z,11.59
2023-02-13T00:40:14.566Z,11.57
2023-02-13T00:41:46.136Z,11.56
2023-02-13T00:43:17.996Z,11.56
2023-02-13T00:44:50.412Z,11.53
2023-02-13T00:46:22.016Z,11.56
2023-02-13T00:47:53.580Z,11.54
2023-02-13T00:49:25.576Z,11.58
2023-02-13T00:50:57.291Z,11.52
2023-02-13T00:52:28.908Z,11.52
2023-02-13T00:54:01.187Z,11.49
2023-02-13T00:55:35.631Z,11.46
2023-02-13T00:57:07.180Z,11.42
2023-02-13T00:58:39.866Z,11.44
2023-02-13T01:00:12.021Z,11.44
2023-02-13T01:01:46.133Z,11.44
2023-02-13T01:03:18.760Z,11.46
2023-02-13T01:04:50.478Z,11.43
2023-02-13T01:06:23.297Z,11.44
2023-02-13T01:07:54.781Z,11.46
2023-02-13T01:09:26.255Z,11.48
2023-02-13T01:10:59.491Z,11.48
2023-02-13T01:12:31.519Z,11.47
2023-02-13T01:14:03.312Z,11.47
2023-02-13T01:15:34.915Z,11.45
2023-02-13T01:17:06.439Z,11.47
2023-02-13T01:18:38.623Z,11.45
2023-02-13T01:20:11.375Z,11.46
2023-02-13T01:21:42.994Z,11.44
2023-02-13T01:23:14.560Z,11.41
2023-02-13T01:24:46.056Z,11.41
2023-02-13T01:26:20.679Z,11.40
2023-02-13T01:27:54.378Z,11.39
2023-02-13T01:29:25.903Z,11.36
2023-02-13T01:30:58.464Z,11.36
2023-02-13T01:32:30.155Z,11.35
2023-02-13T01:34:01.699Z,11.36
2023-02-13T01:35:33.206Z,11.32
2023-02-13T01:37:04.711Z,11.32
2023-02-13T01:38:36.182Z,11.31
2023-02-13T01:40:08.652Z,11.31
2023-02-13T01:41:41.559Z,11.30
2023-02-13T01:43:13.141Z,11.28
2023-02-13T01:44:49.276Z,11.22
2023-02-13T01:46:26.047Z,11.22
2023-02-13T01:47:59.516Z,11.21
2023-02-13T01:49:31.317Z,11.23
2023-02-13T01:51:04.625Z,11.20
2023-02-13T01:52:38.119Z,11.19
2023-02-13T01:54:13.780Z,11.17
2023-02-13T01:55:47.332Z,11.18
2023-02-13T01:57:22.581Z,11.18
2023-02-13T01:58:57.281Z,11.18
2023-02-13T02:00:29.200Z,11.21
2023-02-13T02:02:01.227Z,11.21
2023-02-13T02:03:36.007Z,11.17
2023-02-13T02:05:12.348Z,11.18
2023-02-13T02:06:46.432Z,11.16
2023-02-13T02:08:26.262Z,11.13
2023-02-13T02:10:00.295Z,11.15
2023-02-13T02:11:42.266Z,11.09
2023-02-13T02:13:20.873Z,11.11
2023-02-13T02:14:53.379Z,11.12
2023-02-13T02:16:27.081Z,11.08
2023-02-13T02:17:58.624Z,11.08
2023-02-13T02:19:35.135Z,11.08
2023-02-13T02:21:28.405Z,11.07
2023-02-13T02:23:16.918Z,11.06
2023-02-13T02:25:03.444Z,11.03
2023-02-13T02:26:48.150Z,10.98
2023-02-13T02:28:30.024Z,10.99
2023-02-13T02:30:26.525Z,10.96
2023-02-13T02:32:14.197Z,11.03
2023-02-13T02:33:50.657Z,11.05
2023-02-13T02:35:27.572Z,11.05
2023-02-13T02:37:05.868Z,11.02
2023-02-13T02:38:43.966Z,11.00
2023-02-13T02:40:24.096Z,10.98
2023-02-13T02:42:02.645Z,11.00
2023-02-13T02:43:42.229Z,10.99
2023-02-13T02:45:19.628Z,10.97
2023-02-13T02:47:16.168Z,10.95
2023-02-13T02:49:12.817Z,10.98
2023-02-13T02:50:50.205Z,10.94
2023-02-13T02:52:27.522Z,10.93
2023-02-13T02:54:03.672Z,10.91
2023-02-13T02:55:38.713Z,10.88
2023-02-13T02:57:13.995Z,10.85
2023-02-13T02:59:06.383Z,10.83
2023-02-13T03:01:00.704Z,10.85
2023-02-13T03:02:51.389Z,10.86
2023-02-13T03:04:45.136Z,10.83
2023-02-13T03:06:19.772Z,10.84
2023-02-13T03:07:51.354Z,10.81
2023-02-13T03:09:43.629Z,10.80
2023-02-13T03:11:33.557Z,10.82
2023-02-13T03:13:22.655Z,10.83
2023-02-13T03:14:54.125Z,10.82
2023-02-13T03:16:44.094Z,10.84
2023-02-13T03:18:34.307Z,10.86
2023-02-13T03:20:32.671Z,10.85
2023-02-13T03:22:21.493Z,10.87
2023-02-13T03:23:57.377Z,10.84
2023-02-13T03:25:30.321Z,10.83
2023-02-13T03:27:06.156Z,10.82
2023-02-13T03:29:00.152Z,10.83
2023-02-13T03:30:35.657Z,10.81
2023-02-13T03:32:10.558Z,10.78
2023-02-13T03:33:46.501Z,10.75
2023-02-13T03:35:47.042Z,10.78
2023-02-13T03:37:40.122Z,10.76
2023-02-13T03:39:13.910Z,10.73
2023-02-13T03:41:08.012Z,10.73
2023-02-13T03:42:42.741Z,10.66
2023-02-13T03:44:18.203Z,10.64
2023-02-13T03:45:52.843Z,10.62
2023-02-13T03:47:24.396Z,10.56
2023-02-13T03:49:15.778Z,10.55
2023-02-13T03:50:48.790Z,10.50
2023-02-13T03:52:24.743Z,10.50
2023-02-13T03:53:59.219Z,10.49
2023-02-13T03:55:51.418Z,10.45
2023-02-13T03:57:43.001Z,10.38
2023-02-13T03:59:18.703Z,10.35
2023-02-13T04:00:52.008Z,10.34
2023-02-13T04:02:26.427Z,10.31
2023-02-13T04:04:01.336Z,10.28
2023-02-13T04:05:36.514Z,10.27
2023-02-13T04:07:12.149Z,10.28
2023-02-13T04:08:43.805Z,10.23
2023-02-13T04:10:16.320Z,10.22
2023-02-13T04:11:52.733Z,10.18
2023-02-13T04:13:27.796Z,10.17
2023-02-13T04:15:07.065Z,10.16
2023-02-13T04:16:39.932Z,10.15
2023-02-13T04:18:14.498Z,10.12
2023-02-13T04:19:46.100Z,10.09
2023-02-13T04:21:17.622Z,10.06
2023-02-13T04:22:50.804Z,10.05
2023-02-13T04:24:22.506Z,10.05
2023-02-13T04:25:55.867Z,10.02
2023-02-13T04:27:28.130Z,10.04
2023-02-13T04:28:59.610Z,10.02
2023-02-13T04:30:31.255Z,10.02
2023-02-13T04:32:02.825Z,10.01
2023-02-13T04:33:34.338Z,10.00
2023-02-13T04:35:06.206Z,9.99
2023-02-13T04:36:37.752Z,9.96
2023-02-13T04:38:10.571Z,10.00
2023-02-13T04:39:42.073Z,9.98
2023-02-13T04:41:13.823Z,9.95
2023-02-13T04:42:47.735Z,9.92
2023-02-13T04:44:19.204Z,9.94
2023-02-13T04:45:50.960Z,9.93
2023-02-13T04:47:22.489Z,9.88
2023-02-13T04:48:53.964Z,9.86
2023-02-13T04:50:25.580Z,9.85
2023-02-13T04:51:57.067Z,9.83
2023-02-13T04:53:29.871Z,9.83
2023-02-13T04:55:01.360Z,9.86
2023-02-13T04:56:32.880Z,9.89
2023-02-13T04:58:04.361Z,9.86
2023-02-13T04:59:35.897Z,9.84
2023-02-13T05:01:11.512Z,9.82
2023-02-13T05:02:42.934Z,9.77
2023-02-13T05:04:16.364Z,9.74
2023-02-13T05:05:48.563Z,9.73
2023-02-13T05:07:20.078Z,9.72
2023-02-13T05:08:52.978Z,9.69
2023-02-13T05:10:24.547Z,9.70
2023-02-13T05:11:55.988Z,9.72
2023-02-13T05:13:27.460Z,9.72
2023-02-13T05:14:58.932Z,9.70
2023-02-13T05:16:30.418Z,9.70
2023-02-13T05:18:01.863Z,9.74
2023-02-13T05:19:33.306Z,9.74
2023-02-13T05:21:23.424Z,9.73
2023-02-13T05:23:13.402Z,9.71
2023-02-13T05:24:46.320Z,9.68
2023-02-13T05:26:18.097Z,9.70
2023-02-13T05:27:49.533Z,9.71
2023-02-13T05:29:22.915Z,9.70
2023-02-13T05:30:54.599Z,9.67
2023-02-13T05:32:26.136Z,9.65
2023-02-13T05:33:57.571Z,9.66
2023-02-13T05:35:29.046Z,9.68
2023-02-13T05:37:00.638Z,9.72
2023-02-13T05:38:32.166Z,9.76
2023-02-13T05:40:05.649Z,9.78
2023-02-13T05:41:37.161Z,9.82
2023-02-13T05:43:08.660Z,9.86
2023-02-13T05:44:40.223Z,9.87
2023-02-13T05:46:11.796Z,9.85
2023-02-13T05:47:43.354Z,9.83
2023-02-13T05:49:15.266Z,9.80
2023-02-13T05:50:47.111Z,9.79
2023-02-13T05:52:18.611Z,9.79
2023-02-13T05:53:50.147Z,9.81
2023-02-13T05:55:22.998Z,9.77
2023-02-13T05:56:54.525Z,9.78
2023-02-13T05:58:26.080Z,9.82
2023-02-13T05:59:57.537Z,9.83
2023-02-13T06:01:29.056Z,9.79
2023-02-13T06:03:00.578Z,9.78
2023-02-13T06:04:32.153Z,9.80
2023-02-13T06:06:03.783Z,9.78
2023-02-13T06:07:35.326Z,9.75
2023-02-13T06:09:06.819Z,9.72
2023-02-13T06:10:40.723Z,9.76
2023-02-13T06:12:12.189Z,9.75
2023-02-13T06:13:43.906Z,9.69
2023-02-13T06:15:15.413Z,9.70
2023-02-13T06:16:47.167Z,9.67
2023-02-13T06:18:18.699Z,9.64
2023-02-13T06:19:50.248Z,9.59
2023-02-13T06:21:22.628Z,9.61
2023-02-13T06:22:54.775Z,9.57
2023-02-13T06:24:26.355Z,9.52
2023-02-13T06:26:03.458Z,9.52
2023-02-13T06:27:34.952Z,9.49
2023-02-13T06:29:06.889Z,9.48
2023-02-13T06:30:38.546Z,9.49
2023-02-13T06:32:10.073Z,9.48
2023-02-13T06:33:41.602Z,9.48
2023-02-13T06:35:13.682Z,9.46
2023-02-13T06:36:45.339Z,9.44
2023-02-13T06:38:19.118Z,9.44
2023-02-13T06:39:50.847Z,9.43
2023-02-13T06:41:23.714Z,9.45
2023-02-13T06:42:55.272Z,9.43
2023-02-13T06:44:27.139Z,9.43
2023-02-13T06:45:59.175Z,9.39
2023-02-13T06:47:30.685Z,9.40
2023-02-13T06:49:02.304Z,9.41
2023-02-13T06:50:34.668Z,9.36
2023-02-13T06:52:06.213Z,9.38
2023-02-13T06:53:37.683Z,9.37
2023-02-13T06:55:09.270Z,9.37
2023-02-13T06:56:42.087Z,9.37
2023-02-13T06:58:13.556Z,9.38
2023-02-13T06:59:45.026Z,9.37
2023-02-13T07:01:16.603Z,9.39
2023-02-13T07:02:48.248Z,9.35
2023-02-13T07:04:19.758Z,9.34
2023-02-13T07:05:52.098Z,9.32
2023-02-13T07:07:24.702Z,9.29
2023-02-13T07:08:56.294Z,9.29
2023-02-13T07:10:27.920Z,9.28
2023-02-13T07:12:02.186Z,9.27
2023-02-13T07:13:33.676Z,9.26
2023-02-13T07:15:05.745Z,9.27
2023-02-13T07:16:37.217Z,9.26
2023-02-13T07:18:09.136Z,9.25
2023-02-13T07:19:40.614Z,9.24
2023-02-13T07:21:12.106Z,9.24
2023-02-13T07:22:43.634Z,9.26
2023-02-13T07:24:15.126Z,9.24
2023-02-13T07:25:46.600Z,9.26
2023-02-13T07:27:19.530Z,9.26
2023-02-13T07:28:56.940Z,9.26
2023-02-13T07:30:37.280Z,9.24
2023-02-13T07:32:09.193Z,9.24
2023-02-13T07:33:40.736Z,9.23
2023-02-13T07:35:12.601Z,9.25
2023-02-13T07:36:44.183Z,9.28
2023-02-13T07:38:16.284Z,9.28
2023-02-13T07:39:47.865Z,9.28
2023-02-13T07:41:19.986Z,9.27
2023-02-13T07:42:52.890Z,9.31
2023-02-13T07:44:24.417Z,9.32
2023-02-13T07:45:58.505Z,9.33
2023-02-13T07:47:30.267Z,9.32
2023-02-13T07:49:01.816Z,9.33
2023-02-13T07:50:33.393Z,9.37
2023-02-13T07:52:05.655Z,9.39
2023-02-13T07:53:37.174Z,9.43
2023-02-13T07:55:08.753Z,9.46
2023-02-13T07:56:40.295Z,9.45
2023-02-13T07:58:13.165Z,9.53
2023-02-13T07:59:45.640Z,9.56
2023-02-13T08:01:17.353Z,9.59
2023-02-13T08:02:48.883Z,9.61
2023-02-13T08:04:20.453Z,9.64
2023-02-13T08:05:52.051Z,9.69
2023-02-13T08:07:23.665Z,9.69
2023-02-13T08:09:15.172Z,9.71
2023-02-13T08:11:05.390Z,9.78
2023-02-13T08:12:36.912Z,9.79
2023-02-13T08:14:09.862Z,9.80
2023-02-13T08:15:41.629Z,9.84
2023-02-13T08:17:13.523Z,9.85
2023-02-13T08:18:45.036Z,9.92
2023-02-13T08:20:16.635Z,9.94
2023-02-13T08:21:48.126Z,9.97
2023-02-13T08:23:19.765Z,9.98
2023-02-13T08:24:51.293Z,10.03
2023-02-13T08:26:23.114Z,10.02
2023-02-13T08:27:54.585Z,10.07
2023-02-13T08:29:27.797Z,10.10
2023-02-13T08:30:59.435Z,10.15
2023-02-13T08:32:32.526Z,10.20
2023-02-13T08:34:07.552Z,10.23
2023-02-13T08:35:39.083Z,10.27
2023-02-13T08:37:10.577Z,10.38
2023-02-13T08:38:42.681Z,10.43
2023-02-13T08:40:14.929Z,10.49
2023-02-13T08:41:46.495Z,10.50
2023-02-13T08:43:17.988Z,10.51
2023-02-13T08:44:50.849Z,10.51
2023-02-13T08:46:23.088Z,10.56
2023-02-13T08:47:55.795Z,10.62
2023-02-13T08:49:27.272Z,10.66
2023-02-13T08:50:58.776Z,10.71
2023-02-13T08:52:30.618Z,10.75
2023-02-13T08:54:04.394Z,10.79
2023-02-13T08:55:35.867Z,10.83
2023-02-13T08:57:08.529Z,10.89
2023-02-13T08:58:40.394Z,10.93
2023-02-13T09:00:14.646Z,10.96
2023-02-13T09:01:46.407Z,11.00
2023-02-13T09:03:18.116Z,11.00
2023-02-13T09:04:49.741Z,11.07
2023-02-13T09:06:21.787Z,11.07
2023-02-13T09:07:53.349Z,11.10
2023-02-13T09:09:24.936Z,11.13
2023-02-13T09:10:57.717Z,11.11
2023-02-13T09:12:29.270Z,11.10
2023-02-13T09:14:00.744Z,11.15
2023-02-13T09:15:33.697Z,11.20
2023-02-13T09:17:05.250Z,11.26
2023-02-13T09:18:36.810Z,11.27
2023-02-13T09:20:10.205Z,11.31
2023-02-13T09:21:41.741Z,11.39
2023-02-13T09:23:13.272Z,11.41
2023-02-13T09:24:44.855Z,11.50
2023-02-13T09:26:16.619Z,11.56
2023-02-13T09:27:48.157Z,11.62
2023-02-13T09:29:19.743Z,11.66
2023-02-13T09:30:52.693Z,11.71
2023-02-13T09:32:24.312Z,11.69
2023-02-13T09:33:55.869Z,11.72
2023-02-13T09:35:29.099Z,11.75
2023-02-13T09:37:00.597Z,11.79
2023-02-13T09:38:32.076Z,11.84
2023-02-13T09:40:04.402Z,11.90
2023-02-13T09:41:37.518Z,11.99
2023-02-13T09:43:14.307Z,12.09
2023-02-13T09:44:46.370Z,12.15
2023-02-13T09:46:21.453Z,12.17
2023-02-13T09:47:53.155Z,12.20
2023-02-13T09:49:28.095Z,12.24
2023-02-13T09:50:59.988Z,12.31
2023-02-13T09:52:34.433Z,12.31
2023-02-13T09:54:07.073Z,12.36
2023-02-13T09:55:41.458Z,12.46
2023-02-13T09:57:17.054Z,12.53
2023-02-13T09:58:49.514Z,12.58
2023-02-13T10:00:22.111Z,12.65
2023-02-13T10:01:56.105Z,12.67
2023-02-13T10:03:32.402Z,12.64
2023-02-13T10:05:10.264Z,12.66
2023-02-13T10:06:52.857Z,12.72
2023-02-13T10:08:29.462Z,12.77
2023-02-13T10:10:02.555Z,12.83
2023-02-13T10:11:44.079Z,12.85
2023-02-13T10:13:23.580Z,12.90
2023-02-13T10:15:01.290Z,12.90
2023-02-13T10:16:35.506Z,12.97
2023-02-13T10:18:11.552Z,12.97
2023-02-13T10:19:45.893Z,12.97
2023-02-13T10:21:20.369Z,12.97
2023-02-13T10:22:55.117Z,13.04
2023-02-13T10:24:31.257Z,13.07
2023-02-13T10:26:04.774Z,13.10
2023-02-13T10:27:40.019Z,13.17
2023-02-13T10:29:34.402Z,13.20
2023-02-13T10:31:10.251Z,13.23
2023-02-13T10:32:45.398Z,13.30
2023-02-13T10:34:22.033Z,13.36
2023-02-13T10:35:57.829Z,13.39
2023-02-13T10:37:30.346Z,13.44
2023-02-13T10:39:03.058Z,13.45
2023-02-13T10:40:38.998Z,13.51
2023-02-13T10:42:16.674Z,13.55
2023-02-13T10:43:54.484Z,13.55
2023-02-13T10:45:33.336Z,13.60
2023-02-13T10:47:12.661Z,13.66
2023-02-13T10:48:55.809Z,13.65
2023-02-13T10:50:31.841Z,13.66
2023-02-13T10:52:10.197Z,13.66
2023-02-13T10:53:46.676Z,13.69
2023-02-13T10:55:31.713Z,13.76
2023-02-13T10:57:08.939Z,13.84
2023-02-13T10:58:47.327Z,13.92
2023-02-13T11:00:21.773Z,13.99
2023-02-13T11:01:56.411Z,14.02
2023-02-13T11:03:28.794Z,14.00
2023-02-13T11:05:01.390Z,13.98
2023-02-13T11:06:35.690Z,13.99
2023-02-13T11:08:13.593Z,14.05
2023-02-13T11:09:47.534Z,14.08
2023-02-13T11:11:34.758Z,14.11
2023-02-13T11:13:15.281Z,14.06
2023-02-13T11:14:53.832Z,14.03
2023-02-13T11:16:25.471Z,14.03
2023-02-13T11:17:58.522Z,14.01
2023-02-13T11:19:32.225Z,14.00
2023-02-13T11:21:09.081Z,13.94
2023-02-13T11:22:45.075Z,13.93
2023-02-13T11:24:19.224Z,13.96
2023-02-13T11:25:55.838Z,14.01
2023-02-13T11:27:30.447Z,14.00
2023-02-13T11:29:04.755Z,14.06
2023-02-13T11:30:37.455Z,14.06
2023-02-13T11:32:20.005Z,14.06
2023-02-13T11:33:51.628Z,14.05
2023-02-13T11:35:28.098Z,14.05
2023-02-13T11:37:14.767Z,14.11
2023-02-13T11:38:57.162Z,14.20
2023-02-13T11:40:30.734Z,14.23
2023-02-13T11:42:02.335Z,14.21
2023-02-13T11:43:35.329Z,14.15
2023-02-13T11:45:08.435Z,14.12
2023-02-13T11:46:46.064Z,14.15
2023-02-13T11:48:20.851Z,14.20
2023-02-13T11:49:52.451Z,14.27
2023-02-13T11:51:34.896Z,14.33
2023-02-13T11:53:07.974Z,14.30
2023-02-13T11:54:42.464Z,14.37
2023-02-13T11:56:15.216Z,14.39
2023-02-13T11:57:55.397Z,14.39
2023-02-13T11:59:30.967Z,14.37
2023-02-13T12:01:10.194Z,14.33
2023-02-13T12:02:46.149Z,14.33
2023-02-13T12:04:18.467Z,14.32
2023-02-13T12:06:00.343Z,14.31
2023-02-13T12:07:33.203Z,14.34
2023-02-13T12:09:04.921Z,14.42
2023-02-13T12:10:38.503Z,14.44
2023-02-13T12:12:16.082Z,14.47
2023-02-13T12:13:47.837Z,14.48
2023-02-13T12:15:21.600Z,14.47
2023-02-13T12:16:57.019Z,14.48
2023-02-13T12:18:30.738Z,14.55
2023-02-13T12:20:02.507Z,14.54
2023-02-13T12:21:44.922Z,14.58
2023-02-13T12:23:26.532Z,14.57
2023-02-13T12:25:19.137Z,14.57
2023-02-13T12:26:54.853Z,14.57
2023-02-13T12:28:35.060Z,14.60
2023-02-13T12:30:14.935Z,14.61
2023-02-13T12:31:54.176Z,14.66
2023-02-13T12:33:33.813Z,14.72
2023-02-13T12:35:15.525Z,14.77
2023-02-13T12:36:53.702Z,14.81
2023-02-13T12:38:32.128Z,14.86
2023-02-13T12:40:15.799Z,14.85
2023-02-13T12:41:51.906Z,14.85
2023-02-13T12:43:42.911Z,14.85
2023-02-13T12:45:31.879Z,14.79
2023-02-13T12:47:10.425Z,14.77
2023-02-13T12:48:49.243Z,14.82
2023-02-13T12:50:30.256Z,14.83
2023-02-13T12:52:09.162Z,14.85
2023-02-13T12:53:47.863Z,14.86
2023-02-13T12:55:26.923Z,14.94
2023-02-13T12:57:07.386Z,15.02
2023-02-13T12:58:49.513Z,15.13
2023-02-13T13:00:26.917Z,15.26
2023-02-13T13:02:13.997Z,15.40
2023-02-13T13:03:52.054Z,15.63
2023-02-13T13:05:27.404Z,15.94
2023-02-13T13:07:09.285Z,16.21
2023-02-13T13:08:50.910Z,16.47
2023-02-13T13:10:32.595Z,16.69
2023-02-13T13:12:10.596Z,16.86
2023-02-13T13:13:52.783Z,16.95
2023-02-13T13:15:31.589Z,17.06
2023-02-13T13:17:09.360Z,17.19
2023-02-13T13:18:50.031Z,17.34
2023-02-13T13:20:32.020Z,17.46
2023-02-13T13:22:05.601Z,17.56
2023-02-13T13:23:40.034Z,17.66
2023-02-13T13:25:18.483Z,17.75
2023-02-13T13:26:54.158Z,17.83
2023-02-13T13:28:28.869Z,17.97
2023-02-13T13:30:03.396Z,18.10
2023-02-13T13:31:35.908Z,18.21
2023-02-13T13:33:14.035Z,18.30
2023-02-13T13:34:47.147Z,18.37
2023-02-13T13:36:21.742Z,18.40
2023-02-13T13:38:02.616Z,18.46
2023-02-13T13:39:40.519Z,18.54
2023-02-13T13:41:15.296Z,18.64
2023-02-13T13:42:51.775Z,18.80
2023-02-13T13:44:35.650Z,18.91
2023-02-13T13:46:12.018Z,19.02
2023-02-13T13:47:54.046Z,19.14
2023-02-13T13:49:37.996Z,19.35
2023-02-13T13:51:10.299Z,19.59
2023-02-13T13:53:01.807Z,19.86
2023-02-13T13:54:34.428Z,20.19
2023-02-13T13:56:08.499Z,20.51
2023-02-13T13:57:57.785Z,20.87
2023-02-13T13:59:53.834Z,21.27
2023-02-13T14:01:29.377Z,21.95
2023-02-13T14:03:28.071Z,22.41
2023-02-13T14:05:09.615Z,22.94
2023-02-13T14:06:58.918Z,23.39
2023-02-13T14:09:03.493Z,23.65
2023-02-13T14:11:08.242Z,23.86
2023-02-13T14:12:46.214Z,24.18
2023-02-13T14:14:52.387Z,24.54
2023-02-13T14:16:42.792Z,24.88
2023-02-13T14:18:20.480Z,24.98
2023-02-13T14:19:52.871Z,24.84
2023-02-13T14:21:24.711Z,24.70
2023-02-13T14:22:56.469Z,24.53
2023-02-13T14:24:27.977Z,24.28
2023-02-13T14:26:12.993Z,23.80
2023-02-13T14:27:44.531Z,22.96
2023-02-13T14:29:34.385Z,22.25
2023-02-13T14:31:07.516Z,21.62
2023-02-13T14:32:41.135Z,21.16
2023-02-13T14:34:19.038Z,20.74
2023-02-13T14:35:59.304Z,20.35
2023-02-13T14:37:36.621Z,20.02
2023-02-13T14:39:19.323Z,19.73
2023-02-13T14:40:51.601Z,19.48
2023-02-13T14:42:25.450Z,19.32
2023-02-13T14:43:57.279Z,19.18
2023-02-13T14:45:32.226Z,19.01
2023-02-13T14:47:05.207Z,18.83
2023-02-13T14:48:43.061Z,18.66
2023-02-13T14:50:17.889Z,18.50
2023-02-13T14:51:51.224Z,18.37
2023-02-13T14:53:24.636Z,18.24
2023-02-13T14:55:00.812Z,18.18
2023-02-13T14:56:32.585Z,18.12
2023-02-13T14:58:06.367Z,18.05
2023-02-13T14:59:39.200Z,18.00
2023-02-13T15:01:20.747Z,17.92
2023-02-13T15:02:55.267Z,17.80
2023-02-13T15:04:31.332Z,17.69
2023-02-13T15:06:05.048Z,17.62
2023-02-13T15:07:38.044Z,17.59
2023-02-13T15:09:19.722Z,17.55
2023-02-13T15:10:52.694Z,17.48
2023-02-13T15:12:25.296Z,17.40
2023-02-13T15:13:56.798Z,17.30
2023-02-13T15:15:29.960Z,17.24
2023-02-13T15:17:07.108Z,17.19
2023-02-13T15:18:41.372Z,17.15
2023-02-13T15:20:21.731Z,17.13
2023-02-13T15:21:54.805Z,17.09
2023-02-13T15:23:29.053Z,17.04
2023-02-13T15:25:00.817Z,17.01
2023-02-13T15:26:32.320Z,17.00
2023-02-13T15:28:05.410Z,17.00
2023-02-13T15:29:49.301Z,17.00
2023-02-13T15:31:23.178Z,16.99
2023-02-13T15:32:55.424Z,16.95
2023-02-13T15:34:28.038Z,16.88
2023-02-13T15:36:01.807Z,16.83
2023-02-13T15:37:33.467Z,16.82
2023-02-13T15:39:09.503Z,16.80
2023-02-13T15:40:41.661Z,16.76
2023-02-13T15:42:13.502Z,16.72
2023-02-13T15:43:46.031Z,16.68
2023-02-13T15:45:18.618Z,16.67
2023-02-13T15:46:53.718Z,16.65
2023-02-13T15:48:25.229Z,16.63
2023-02-13T15:49:57.046Z,16.63
2023-02-13T15:51:30.717Z,16.60
2023-02-13T15:53:03.697Z,16.57
2023-02-13T15:54:36.013Z,16.54
2023-02-13T15:56:13.786Z,16.55
2023-02-13T15:57:45.613Z,16.53
2023-02-13T15:59:18.481Z,16.51
2023-02-13T16:00:50.081Z,16.49
2023-02-13T16:02:23.677Z,16.46
2023-02-13T16:03:58.332Z,16.44
2023-02-13T16:05:40.100Z,16.41
2023-02-13T16:07:14.303Z,16.37
2023-02-13T16:08:51.341Z,16.35
2023-02-13T16:10:27.542Z,16.31
2023-02-13T16:12:01.388Z,16.29
2023-02-13T16:13:33.069Z,16.27
2023-02-13T16:15:06.463Z,16.23
2023-02-13T16:16:44.445Z,16.23
2023-02-13T16:18:18.625Z,16.21
2023-02-13T16:19:53.446Z,16.19
2023-02-13T16:21:26.482Z,16.15
2023-02-13T16:23:01.447Z,16.12
2023-02-13T16:24:33.383Z,16.05
2023-02-13T16:26:07.754Z,16.00
2023-02-13T16:27:42.180Z,15.95
2023-02-13T16:29:18.475Z,15.91
2023-02-13T16:30:52.511Z,15.88
2023-02-13T16:32:26.846Z,15.83
2023-02-13T16:33:58.763Z,15.81
2023-02-13T16:35:31.356Z,15.76
2023-02-13T16:37:02.899Z,15.72
2023-02-13T16:38:36.732Z,15.66
2023-02-13T16:40:26.907Z,15.60
2023-02-13T16:41:59.281Z,15.54
2023-02-13T16:43:38.526Z,15.52
2023-02-13T16:45:22.819Z,15.48
2023-02-13T16:46:55.803Z,15.48
2023-02-13T16:48:27.286Z,15.48
2023-02-13T16:49:58.902Z,15.45
2023-02-13T16:51:32.966Z,15.42
2023-02-13T16:53:04.641Z,15.38
2023-02-13T16:54:39.321Z,15.32
2023-02-13T16:56:11.406Z,15.28
2023-02-13T16:57:44.360Z,15.21
2023-02-13T16:59:22.330Z,15.15
2023-02-13T17:00:54.417Z,15.11
2023-02-13T17:02:27.170Z,15.08
2023-02-13T17:03:58.707Z,15.06
2023-02-13T17:05:30.613Z,15.02
2023-02-13T17:07:02.172Z,14.96
2023-02-13T17:08:33.749Z,14.93
2023-02-13T17:10:07.716Z,14.89
2023-02-13T17:11:39.428Z,14.86
2023-02-13T17:13:14.460Z,14.81
2023-02-13T17:14:46.380Z,14.79
2023-02-13T17:16:17.926Z,14.75
2023-02-13T17:17:50.549Z,14.72
2023-02-13T17:19:22.053Z,14.68
2023-02-13T17:20:53.952Z,14.64
2023-02-13T17:22:31.037Z,14.57
2023-02-13T17:24:02.638Z,14.48
2023-02-13T17:25:37.554Z,14.39
2023-02-13T17:27:09.436Z,14.29
2023-02-13T17:28:41.016Z,14.28
2023-02-13T17:30:13.628Z,14.24
2023-02-13T17:31:45.315Z,14.20
2023-02-13T17:33:20.086Z,14.18
2023-02-13T17:34:51.688Z,14.13
2023-02-13T17:36:23.220Z,14.11
2023-02-13T17:37:54.745Z,14.09
2023-02-13T17:39:26.255Z,14.08
2023-02-13T17:41:00.390Z,14.04
2023-02-13T17:42:32.229Z,14.03
2023-02-13T17:44:03.849Z,14.00
2023-02-13T17:45:35.423Z,13.98
2023-02-13T17:47:06.972Z,13.99
2023-02-13T17:48:38.472Z,13.97
2023-02-13T17:50:11.136Z,13.96
2023-02-13T17:51:45.044Z,13.93
2023-02-13T17:53:23.181Z,13.93
2023-02-13T17:54:54.749Z,13.91
2023-02-13T17:56:27.607Z,13.92
2023-02-13T17:57:59.473Z,13.92
2023-02-13T17:59:30.989Z,13.92
2023-02-13T18:01:02.759Z,13.90
2023-02-13T18:02:35.090Z,13.88
2023-02-13T18:04:06.562Z,13.86
2023-02-13T18:05:38.115Z,13.86
2023-02-13T18:07:10.289Z,13.85
2023-02-13T18:08:41.872Z,13.82
2023-02-13T18:10:14.591Z,13.82
2023-02-13T18:11:57.015Z,13.82
2023-02-13T18:13:36.462Z,13.82
2023-02-13T18:15:08.358Z,13.78
2023-02-13T18:16:39.848Z,13.72
2023-02-13T18:18:11.936Z,13.70
2023-02-13T18:19:43.493Z,13.66
2023-02-13T18:21:14.963Z,13.61
2023-02-13T18:22:46.562Z,13.60
2023-02-13T18:24:18.235Z,13.60
2023-02-13T18:25:49.759Z,13.60
2023-02-13T18:27:23.645Z,13.59
2023-02-13T18:28:55.374Z,13.56
2023-02-13T18:30:27.453Z,13.55
2023-02-13T18:31:59.135Z,13.53
2023-02-13T18:33:30.738Z,13.51
2023-02-13T18:35:02.659Z,13.49
2023-02-13T18:36:34.169Z,13.47
2023-02-13T18:38:05.654Z,13.48
2023-02-13T18:39:37.204Z,13.47
2023-02-13T18:41:08.681Z,13.44
2023-02-13T18:42:41.657Z,13.37
2023-02-13T18:44:23.331Z,13.35
2023-02-13T18:45:58.709Z,13.33
2023-02-13T18:47:30.889Z,13.32
2023-02-13T18:49:03.039Z,13.31
2023-02-13T18:50:34.612Z,13.28
2023-02-13T18:52:06.060Z,13.26
2023-02-13T18:53:40.540Z,13.25
2023-02-13T18:55:12.214Z,13.24
2023-02-13T18:56:43.825Z,13.22
2023-02-13T18:58:16.626Z,13.22
2023-02-13T18:59:48.148Z,13.21
2023-02-13T19:01:20.905Z,13.21
2023-02-13T19:02:52.718Z,13.20
2023-02-13T19:04:24.260Z,13.18
2023-02-13T19:05:57.217Z,13.13
2023-02-13T19:07:28.783Z,13.10
2023-02-13T19:09:00.452Z,13.07
2023-02-13T19:10:32.285Z,13.04
2023-02-13T19:12:04.065Z,13.03
2023-02-13T19:13:37.966Z,13.02
2023-02-13T19:15:09.792Z,12.98
2023-02-13T19:16:41.442Z,12.98
2023-02-13T19:18:13.047Z,12.97
2023-02-13T19:19:45.651Z,12.94
2023-02-13T19:21:17.160Z,12.91
2023-02-13T19:22:48.671Z,12.90
2023-02-13T19:24:20.164Z,12.88
2023-02-13T19:25:51.873Z,12.84
2023-02-13T19:27:23.498Z,12.79
2023-02-13T19:28:57.312Z,12.74
2023-02-13T19:30:28.883Z,12.70
2023-02-13T19:32:00.403Z,12.65
2023-02-13T19:33:31.955Z,12.59
2023-02-13T19:35:03.562Z,12.56
2023-02-13T19:36:35.501Z,12.51
2023-02-13T19:38:07.037Z,12.49
2023-02-13T19:39:38.538Z,12.45
2023-02-13T19:41:11.118Z,12.43
2023-02-13T19:42:42.655Z,12.41
2023-02-13T19:44:15.964Z,12.41
2023-02-13T19:45:47.474Z,12.41
2023-02-13T19:47:18.968Z,12.40
2023-02-13T19:48:50.769Z,12.39
2023-02-13T19:50:22.806Z,12.39
2023-02-13T19:51:54.324Z,12.36
2023-02-13T19:53:25.883Z,12.34
2023-02-13T19:54:57.378Z,12.31
2023-02-13T19:56:29.551Z,12.28
2023-02-13T19:58:01.480Z,12.27
2023-02-13T19:59:34.312Z,12.25
2023-02-13T20:01:06.082Z,12.23
2023-02-13T20:02:38.247Z,12.22
2023-02-13T20:04:09.979Z,12.20
2023-02-13T20:05:41.506Z,12.18
2023-02-13T20:07:13.170Z,12.15
2023-02-13T20:08:44.890Z,12.12
2023-02-13T20:10:16.382Z,12.10
2023-02-13T20:11:48.033Z,12.08
2023-02-13T20:13:19.502Z,12.09
2023-02-13T20:14:54.548Z,12.09
2023-02-13T20:16:26.494Z,12.07
2023-02-13T20:17:58.000Z,12.06
2023-02-13T20:19:30.632Z,12.05
2023-02-13T20:21:04.555Z,12.02
2023-02-13T20:22:36.062Z,12.01
2023-02-13T20:24:08.093Z,12.01
2023-02-13T20:25:39.574Z,11.99
2023-02-13T20:27:11.639Z,11.97
2023-02-13T20:28:44.003Z,11.89